Time;durP1;ratioP1;P1;durP2;ratioP2;P2;SDS_P1;SDS_P2;PMS_P1;PMS_P2;Temp;Humidity;BMP_temperature;BMP_pressure;BME280_temperature;BME280_humidity;BME280_pressure;Samples;Min_cycle;Max_cycle;Signal;HPM_P1;HPM_P2
2024/02/24 00:00:45;;;;;;;3.10;1.30;;;;;;;2.32;100.00;99097.25;5042906;28;21162;-79
2024/02/24 00:03:14;;;;;;;2.78;1.10;;;;;;;2.38;100.00;99105.06;5040502;28;20431;-79
2024/02/24 00:05:43;;;;;;;4.70;1.30;;;;;;;2.32;100.00;99103.44;5036260;28;20430;-78
2024/02/24 00:08:11;;;;;;;4.82;1.23;;;;;;;2.30;100.00;99096.72;5035679;28;20438;-79
2024/02/24 00:10:39;;;;;;;3.17;1.30;;;;;;;2.20;100.00;99100.97;5034425;28;20424;-79
2024/02/24 00:13:13;;;;;;;3.30;1.38;;;;;;;2.16;100.00;99102.56;5052892;28;20440;-79
2024/02/24 00:15:41;;;;;;;7.05;1.30;;;;;;;2.10;100.00;99098.25;5051094;28;20429;-79
2024/02/24 00:18:15;;;;;;;4.55;1.20;;;;;;;2.09;100.00;99091.28;5041641;28;20437;-79
2024/02/24 00:20:43;;;;;;;2.30;1.10;;;;;;;2.18;100.00;99102.31;5050567;28;20425;-78
2024/02/24 00:23:16;;;;;;;3.58;1.27;;;;;;;2.18;100.00;99099.63;5043794;28;20794;-79
2024/02/24 00:25:49;;;;;;;4.97;1.40;;;;;;;2.27;100.00;99099.94;5052661;28;21148;-78
2024/02/24 00:28:23;;;;;;;5.88;1.35;;;;;;;2.23;100.00;99094.28;5038876;28;20429;-78
2024/02/24 00:30:56;;;;;;;3.70;1.10;;;;;;;2.22;100.00;99095.34;5055086;28;20443;-79
2024/02/24 00:33:30;;;;;;;6.20;1.40;;;;;;;2.24;100.00;99090.53;5036700;28;20426;-78
2024/02/24 00:36:00;;;;;;;3.10;1.20;;;;;;;2.15;100.00;99092.91;5037481;28;20426;-79
2024/02/24 00:38:33;;;;;;;2.92;1.20;;;;;;;2.11;100.00;99094.50;5054917;28;20438;-79
2024/02/24 00:41:06;;;;;;;6.47;1.30;;;;;;;2.12;100.00;99096.13;5058247;28;20528;-79
2024/02/24 00:43:39;;;;;;;4.00;1.17;;;;;;;2.16;100.00;99107.13;5053629;28;20427;-79
2024/02/24 00:46:13;;;;;;;5.93;1.40;;;;;;;2.09;100.00;99102.00;5053218;28;20435;-78
2024/02/24 00:48:47;;;;;;;5.60;1.20;;;;;;;2.02;100.00;99096.88;5051589;28;20426;-78
2024/02/24 00:51:20;;;;;;;6.57;1.50;;;;;;;2.02;100.00;99098.78;5054754;28;20425;-78
2024/02/24 00:53:53;;;;;;;3.95;1.20;;;;;;;1.89;100.00;99101.91;5040724;28;20417;-78
2024/02/24 00:56:26;;;;;;;4.45;1.15;;;;;;;1.82;100.00;99094.09;5035913;28;20434;-79
2024/02/24 00:59:00;;;;;;;4.03;1.47;;;;;;;1.76;100.00;99095.97;5053030;28;20443;-78
2024/02/24 01:01:33;;;;;;;3.70;1.20;;;;;;;1.74;100.00;99102.66;5037143;28;20448;-77
2024/02/24 01:04:08;;;;;;;4.68;1.50;;;;;;;1.75;100.00;99093.53;5048060;28;20453;-77
2024/02/24 01:06:41;;;;;;;6.53;1.57;;;;;;;1.78;100.00;99091.16;5029999;28;20427;-78
2024/02/24 01:09:14;;;;;;;3.78;1.10;;;;;;;1.76;100.00;99087.13;5051808;28;20428;-78
2024/02/24 01:11:47;;;;;;;4.30;1.40;;;;;;;1.76;100.00;99093.28;5052096;28;20812;-78
2024/02/24 01:14:20;;;;;;;2.58;1.20;;;;;;;1.72;100.00;99081.47;5037934;28;20425;-78
2024/02/24 01:16:54;;;;;;;5.68;1.50;;;;;;;1.66;100.00;99090.56;5056468;28;20420;-78
2024/02/24 01:19:28;;;;;;;4.78;1.50;;;;;;;1.65;100.00;99092.41;5060772;28;20431;-78
2024/02/24 01:22:01;;;;;;;4.63;1.27;;;;;;;1.60;100.00;99094.25;5043647;28;20412;-78
2024/02/24 01:24:35;;;;;;;4.70;1.40;;;;;;;1.56;100.00;99087.81;5062130;28;20416;-78
2024/02/24 01:27:08;;;;;;;4.10;1.35;;;;;;;1.46;100.00;99081.31;5059990;28;20425;-78
2024/02/24 01:29:41;;;;;;;4.30;1.40;;;;;;;1.48;100.00;99081.06;5047546;28;20768;-78
2024/02/24 01:32:14;;;;;;;5.88;1.70;;;;;;;1.43;100.00;99079.16;5060043;28;20434;-78
2024/02/24 01:34:49;;;;;;;4.50;1.42;;;;;;;1.46;100.00;99086.66;5049472;28;20436;-78
2024/02/24 01:37:23;;;;;;;5.20;1.48;;;;;;;1.36;100.00;99098.13;5061075;28;20960;-78
2024/02/24 01:39:56;;;;;;;5.93;1.50;;;;;;;1.39;100.00;99093.34;5061675;28;20428;-78
2024/02/24 01:42:29;;;;;;;6.32;1.50;;;;;;;1.38;100.00;99095.19;5064064;28;20431;-78
2024/02/24 01:45:03;;;;;;;5.70;1.40;;;;;;;1.44;100.00;99101.41;5060942;28;20427;-78
2024/02/24 01:47:36;;;;;;;4.35;1.30;;;;;;;1.38;100.00;99105.91;5054643;28;20407;-78
2024/02/24 01:50:11;;;;;;;4.60;1.42;;;;;;;1.38;100.00;99108.59;5037901;28;20450;-78
2024/02/24 01:52:40;;;;;;;2.90;1.23;;;;;;;1.36;100.00;99105.38;5039426;28;20426;-78
2024/02/24 01:55:14;;;;;;;3.57;1.47;;;;;;;1.38;100.00;99102.44;5040038;28;21092;-78
2024/02/24 01:57:51;;;;;;;4.18;1.42;;;;;;;1.39;100.00;99114.78;5057864;28;20432;-77
2024/02/24 02:00:25;;;;;;;3.78;1.25;;;;;;;1.37;100.00;99112.34;5062609;28;20423;-78
2024/02/24 02:02:59;;;;;;;5.25;1.33;;;;;;;1.35;100.00;99115.31;5045836;28;20454;-78
2024/02/24 02:05:28;;;;;;;4.28;1.50;;;;;;;1.31;100.00;99114.19;5039602;28;20409;-78
2024/02/24 02:07:56;;;;;;;4.20;1.30;;;;;;;1.29;100.00;99120.88;5062154;28;20421;-78
2024/02/24 02:10:43;;;;;;;7.93;1.83;;;;;;;1.33;100.00;99116.63;5064276;28;20417;-78
2024/02/24 02:13:17;;;;;;;4.50;1.60;;;;;;;1.32;100.00;99118.47;5054873;28;20521;-78
2024/02/24 02:15:51;;;;;;;5.90;1.35;;;;;;;1.33;100.00;99114.72;5057889;28;20426;-77
2024/02/24 02:18:24;;;;;;;4.95;1.63;;;;;;;1.30;100.00;99117.94;5059510;28;20419;-77
2024/02/24 02:21:00;;;;;;;5.35;1.58;;;;;;;1.33;100.00;99109.38;5059433;28;21062;-78
2024/02/24 02:23:29;;;;;;;6.47;1.60;;;;;;;1.29;100.00;99123.56;5055698;28;20430;-78
2024/02/24 02:25:58;;;;;;;4.80;1.48;;;;;;;1.35;100.00;99120.66;5038984;28;20427;-77
2024/02/24 02:28:31;;;;;;;5.45;1.42;;;;;;;1.26;100.00;99114.16;5055765;28;21167;-78
2024/02/24 02:31:00;;;;;;;4.95;1.52;;;;;;;1.23;100.00;99117.34;5057107;28;20469;-78
2024/02/24 02:33:34;;;;;;;6.50;1.65;;;;;;;1.23;100.00;99116.53;5054190;28;20427;-78
2024/02/24 02:36:07;;;;;;;4.97;1.50;;;;;;;1.22;100.00;99114.94;5053310;28;20424;-78
2024/02/24 02:38:37;;;;;;;4.47;1.50;;;;;;;1.26;100.00;99119.50;5055161;28;20447;-78
2024/02/24 02:41:10;;;;;;;5.05;1.60;;;;;;;1.21;100.00;99113.31;5055764;28;20428;-78
2024/02/24 02:43:38;;;;;;;5.18;1.58;;;;;;;1.19;100.00;99103.66;5045192;28;20433;-78
2024/02/24 02:46:07;;;;;;;5.75;1.67;;;;;;;1.10;100.00;99104.38;5054758;28;20421;-78
2024/02/24 02:48:40;;;;;;;6.70;1.67;;;;;;;1.22;100.00;99112.25;5035240;28;20440;-78
2024/02/24 02:51:08;;;;;;;6.22;1.50;;;;;;;1.12;100.00;99113.78;5044122;28;20434;-78
2024/02/24 02:53:43;;;;;;;7.18;1.60;;;;;;;1.14;100.00;99117.00;5053498;28;20428;-78
2024/02/24 02:56:20;;;;;;;4.55;1.58;;;;;;;1.07;100.00;99113.72;5042942;28;20432;-78
2024/02/24 02:58:48;;;;;;;4.65;1.55;;;;;;;1.08;100.00;99117.22;5044835;28;20436;-77
2024/02/24 03:01:17;;;;;;;8.35;1.77;;;;;;;0.98;100.00;99123.28;5053267;28;20429;-78
2024/02/24 03:03:50;;;;;;;6.80;1.85;;;;;;;1.05;100.00;99115.03;5041806;28;20444;-78
2024/02/24 03:06:24;;;;;;;8.50;1.83;;;;;;;0.98;100.00;99115.25;5033044;28;20444;-78
2024/02/24 03:08:59;;;;;;;6.60;1.67;;;;;;;0.89;100.00;99120.28;5052622;28;20430;-78
2024/02/24 03:11:33;;;;;;;6.65;1.88;;;;;;;0.83;100.00;99119.44;5045311;28;20444;-78
2024/02/24 03:14:06;;;;;;;5.38;1.50;;;;;;;0.84;100.00;99121.06;5057959;28;20427;-77
2024/02/24 03:16:35;;;;;;;5.03;1.70;;;;;;;0.82;100.00;99114.31;5039975;28;20431;-77
2024/02/24 03:19:03;;;;;;;6.70;1.70;;;;;;;0.84;100.00;99118.38;5057778;28;20458;-77
2024/02/24 03:21:36;;;;;;;7.70;2.00;;;;;;;0.81;100.00;99118.06;5059130;28;20879;-78
2024/02/24 03:24:07;;;;;;;7.03;1.73;;;;;;;0.82;100.00;99119.69;5045378;28;20450;-78
2024/02/24 03:26:40;;;;;;;8.27;1.80;;;;;;;0.78;100.00;99116.69;5046440;28;20938;-78
2024/02/24 03:29:13;;;;;;;3.60;1.60;;;;;;;0.78;100.00;99124.72;5057420;28;20421;-78
2024/02/24 03:31:46;;;;;;;4.53;1.75;;;;;;;0.74;100.00;99126.28;5057552;28;20433;-78
2024/02/24 03:34:19;;;;;;;4.60;1.50;;;;;;;0.77;100.00;99122.31;5033691;28;20924;-78
2024/02/24 03:36:53;;;;;;;4.18;1.73;;;;;;;0.84;100.00;99115.69;5053180;28;20415;-78
2024/02/24 03:39:27;;;;;;;8.40;1.80;;;;;;;0.79;100.00;99125.56;5033432;28;20827;-77
2024/02/24 03:42:01;;;;;;;4.38;1.50;;;;;;;0.72;100.00;99125.75;5054710;28;20941;-78
2024/02/24 03:44:34;;;;;;;5.95;1.80;;;;;;;0.71;100.00;99121.44;5041506;28;20429;-78
2024/02/24 03:47:07;;;;;;;6.13;1.77;;;;;;;0.65;100.00;99134.00;5052175;28;20783;-78
2024/02/24 03:49:41;;;;;;;6.25;1.85;;;;;;;0.63;100.00;99132.63;5038972;28;21091;-78
2024/02/24 03:52:09;;;;;;;9.00;1.83;;;;;;;0.57;100.00;99137.13;5033560;28;20433;-78
2024/02/24 03:54:44;;;;;;;6.65;2.08;;;;;;;0.59;100.00;99129.63;5052125;28;20801;-78
2024/02/24 03:57:17;;;;;;;5.22;1.90;;;;;;;0.64;100.00;99131.56;5031052;28;20420;-77
2024/02/24 03:59:46;;;;;;;5.77;1.90;;;;;;;0.67;100.00;99125.69;5054769;28;20847;-78
2024/02/24 04:02:14;;;;;;;6.32;1.80;;;;;;;0.64;100.00;99123.53;5051727;28;20446;-78
2024/02/24 04:04:47;;;;;;;5.10;1.87;;;;;;;0.54;100.00;99128.75;5051816;28;20432;-78
2024/02/24 04:07:21;;;;;;;4.00;1.70;;;;;;;0.60;100.00;99133.94;5052712;28;20425;-78
2024/02/24 04:09:55;;;;;;;6.43;1.83;;;;;;;0.59;100.00;99132.31;5038231;28;20442;-77
2024/02/24 04:12:28;;;;;;;5.57;1.60;;;;;;;0.56;100.00;99132.81;5052623;28;20421;-77
2024/02/24 04:15:02;;;;;;;7.05;1.92;;;;;;;0.57;100.00;99134.44;5054200;28;20417;-78
2024/02/24 04:17:35;;;;;;;5.28;1.83;;;;;;;0.55;100.00;99130.38;5034921;28;20433;-78
2024/02/24 04:20:09;;;;;;;4.80;1.80;;;;;;;0.46;100.00;99138.06;5048607;28;20479;-78
2024/02/24 04:22:43;;;;;;;6.13;1.90;;;;;;;0.46;100.00;99136.19;5040203;28;20432;-78
2024/02/24 04:25:17;;;;;;;7.47;1.80;;;;;;;0.45;100.00;99139.91;5033359;28;20431;-77
2024/02/24 04:27:45;;;;;;;7.13;1.80;;;;;;;0.46;100.00;99138.06;5033106;28;20436;-78
2024/02/24 04:30:14;;;;;;;6.65;1.80;;;;;;;0.48;100.00;99147.47;5038548;28;20429;-78
2024/02/24 04:32:47;;;;;;;5.15;1.80;;;;;;;0.46;100.00;99146.91;5054152;28;20425;-78
2024/02/24 04:35:15;;;;;;;3.92;1.60;;;;;;;0.48;100.00;99154.66;5038121;28;20438;-78
2024/02/24 04:37:43;;;;;;;4.87;1.80;;;;;;;0.48;100.00;99152.81;5050044;28;20424;-78
2024/02/24 04:40:19;;;;;;;5.78;2.03;;;;;;;0.49;100.00;99151.75;5050217;28;20440;-78
2024/02/24 04:42:52;;;;;;;6.10;1.95;;;;;;;0.56;100.00;99158.78;5037505;28;20423;-78
2024/02/24 04:45:26;;;;;;;5.72;1.80;;;;;;;0.55;100.00;99159.84;5036524;28;20429;-77
2024/02/24 04:47:59;;;;;;;4.82;1.88;;;;;;;0.55;100.00;99157.16;5035808;28;20434;-78
2024/02/24 04:50:33;;;;;;;5.68;1.98;;;;;;;0.54;100.00;99150.19;5041665;28;20427;-78
2024/02/24 04:53:06;;;;;;;7.80;1.95;;;;;;;0.48;100.00;99157.34;5039731;28;20429;-78
2024/02/24 04:55:41;;;;;;;5.75;1.77;;;;;;;0.42;100.00;99153.81;5057124;28;20429;-77
2024/02/24 04:58:14;;;;;;;9.83;2.17;;;;;;;0.43;100.00;99151.94;5034681;28;20427;-77
2024/02/24 05:00:42;;;;;;;7.68;1.80;;;;;;;0.42;100.00;99159.16;5037543;28;20442;-78
2024/02/24 05:03:10;;;;;;;6.20;2.10;;;;;;;0.46;100.00;99159.47;5058535;28;20409;-77
2024/02/24 05:05:38;;;;;;;5.93;2.00;;;;;;;0.46;100.00;99157.59;5056794;28;20429;-78
2024/02/24 05:08:07;;;;;;;5.60;2.13;;;;;;;0.47;100.00;99158.41;5056318;28;20460;-78
2024/02/24 05:10:41;;;;;;;5.60;1.95;;;;;;;0.43;100.00;99165.31;5044504;28;20423;-78
2024/02/24 05:13:14;;;;;;;7.32;1.77;;;;;;;0.41;100.00;99159.41;5058484;28;20428;-78
2024/02/24 05:15:43;;;;;;;6.75;1.92;;;;;;;0.40;100.00;99171.16;5063666;28;20436;-78
2024/02/24 05:18:16;;;;;;;6.57;2.00;;;;;;;0.34;100.00;99170.31;5042457;28;20421;-77
2024/02/24 05:20:49;;;;;;;6.28;1.80;;;;;;;0.31;100.00;99163.56;5044648;28;21313;-78
2024/02/24 05:23:17;;;;;;;6.20;1.90;;;;;;;0.30;100.00;99174.53;5057232;28;20427;-77
2024/02/24 05:25:52;;;;;;;5.72;1.90;;;;;;;0.36;100.00;99170.06;5042322;28;20442;-78
2024/02/24 05:28:25;;;;;;;5.75;2.00;;;;;;;0.36;100.00;99176.22;5057281;28;20432;-77
2024/02/24 05:30:53;;;;;;;5.68;1.95;;;;;;;0.37;100.00;99172.47;5041458;28;20437;-77
2024/02/24 05:33:21;;;;;;;7.45;2.55;;;;;;;0.36;100.00;99167.38;5038828;28;20425;-78
2024/02/24 05:35:55;;;;;;;7.57;2.50;;;;;;;0.40;100.00;99179.19;5040444;28;20462;-77
2024/02/24 05:38:28;;;;;;;6.75;2.28;;;;;;;0.32;100.00;99178.59;5059602;28;20428;-78
2024/02/24 05:40:57;;;;;;;8.35;2.85;;;;;;;0.29;100.00;99188.97;5049274;28;20451;-78
2024/02/24 05:43:25;;;;;;;5.95;2.40;;;;;;;0.31;100.00;99190.34;5038515;28;20431;-77
2024/02/24 05:45:58;;;;;;;9.82;3.28;;;;;;;0.30;100.00;99190.59;5059638;28;20429;-77
2024/02/24 05:48:32;;;;;;;10.07;3.80;;;;;;;0.26;100.00;99194.81;5059448;28;20930;-77
2024/02/24 05:51:10;;;;;;;6.72;2.90;;;;;;;0.27;100.00;99197.25;5061921;28;20427;-77
2024/02/24 05:53:39;;;;;;;12.77;2.70;;;;;;;0.17;100.00;99197.13;5058428;28;20421;-77
2024/02/24 05:56:13;;;;;;;6.70;2.63;;;;;;;0.16;100.00;99198.97;5045413;28;20425;-77
2024/02/24 05:58:47;;;;;;;10.70;2.80;;;;;;;0.12;100.00;99207.75;5056921;28;20485;-77
2024/02/24 06:01:15;;;;;;;7.97;2.50;;;;;;;0.15;100.00;99209.94;5045146;28;20436;-77
2024/02/24 06:03:48;;;;;;;6.10;2.40;;;;;;;0.10;100.00;99213.34;5057155;28;20422;-78
2024/02/24 06:06:21;;;;;;;6.85;2.40;;;;;;;0.09;100.00;99208.25;5055674;28;20420;-78
2024/02/24 06:08:54;;;;;;;6.13;2.20;;;;;;;0.08;100.00;99215.44;5059960;28;20427;-78
2024/02/24 06:11:29;;;;;;;4.78;2.10;;;;;;;0.06;100.00;99222.94;5058968;28;20447;-78
2024/02/24 06:14:02;;;;;;;6.78;2.30;;;;;;;0.05;100.00;99215.94;5057216;28;20775;-77
2024/02/24 06:16:35;;;;;;;7.40;2.13;;;;;;;-0.02;100.00;99213.44;5056354;28;20425;-78
2024/02/24 06:19:09;;;;;;;6.70;2.08;;;;;;;-0.03;100.00;99209.19;5041881;28;20434;-77
2024/02/24 06:21:42;;;;;;;4.43;1.90;;;;;;;-0.05;100.00;99205.91;5056458;28;20428;-77
2024/02/24 06:24:15;;;;;;;4.43;1.88;;;;;;;0.03;100.00;99211.91;5040282;28;20431;-77
2024/02/24 06:26:50;;;;;;;5.90;2.23;;;;;;;-0.03;100.00;99211.84;5055558;28;20444;-77
2024/02/24 06:29:23;;;;;;;6.40;2.10;;;;;;;0.01;100.00;99208.69;5054722;28;20435;-78
2024/02/24 06:31:56;;;;;;;7.05;2.30;;;;;;;0.04;100.00;99213.53;5056402;28;20413;-78
2024/02/24 06:34:29;;;;;;;8.15;2.35;;;;;;;0.15;100.00;99218.78;5041450;28;20427;-77
2024/02/24 06:37:02;;;;;;;9.02;2.38;;;;;;;0.25;100.00;99225.31;5059223;28;20772;-77
2024/02/24 06:39:35;;;;;;;6.65;2.75;;;;;;;0.32;100.00;99226.75;5056192;28;20429;-78
2024/02/24 06:42:10;;;;;;;7.45;2.40;;;;;;;0.48;100.00;99219.75;5058974;28;20417;-77
2024/02/24 06:44:43;;;;;;;7.70;2.05;;;;;;;0.55;100.00;99227.56;5054900;28;20408;-77
2024/02/24 06:47:17;;;;;;;4.43;2.15;;;;;;;0.64;100.00;99231.41;5039997;28;20442;-78
2024/02/24 06:49:50;;;;;;;4.68;2.17;;;;;;;0.62;100.00;99232.72;5034649;28;20456;-78
2024/02/24 06:52:23;;;;;;;4.73;2.10;;;;;;;0.58;100.00;99236.97;5037943;28;20440;-78
2024/02/24 06:54:56;;;;;;;8.07;2.63;;;;;;;0.58;100.00;99236.97;5037032;28;20426;-78
2024/02/24 06:57:31;;;;;;;8.00;2.30;;;;;;;0.44;100.00;99237.34;5054989;28;20423;-78
2024/02/24 07:00:05;;;;;;;7.15;2.30;;;;;;;0.47;100.00;99244.88;5040309;28;20430;-78
2024/02/24 07:02:33;;;;;;;6.82;2.25;;;;;;;0.40;100.00;99238.91;5053904;28;20444;-78
2024/02/24 07:05:03;;;;;;;9.35;2.88;;;;;;;0.44;100.00;99245.38;5055562;28;20774;-78
2024/02/24 07:07:36;;;;;;;6.38;2.83;;;;;;;0.54;100.00;99242.03;5055307;28;20441;-78
2024/02/24 07:10:10;;;;;;;10.27;2.83;;;;;;;0.60;100.00;99235.66;5056940;28;20415;-77
2024/02/24 07:12:45;;;;;;;8.63;3.70;;;;;;;0.62;100.00;99246.13;5059542;28;20419;-77
2024/02/24 07:15:18;;;;;;;7.80;2.30;;;;;;;0.68;100.00;99234.41;5057394;28;20446;-78
2024/02/24 07:17:51;;;;;;;5.03;2.20;;;;;;;0.78;100.00;99250.59;5037997;28;20432;-77
2024/02/24 07:20:19;;;;;;;6.10;2.30;;;;;;;0.78;100.00;99250.59;5057210;28;20997;-78
2024/02/24 07:22:52;;;;;;;7.82;2.40;;;;;;;0.86;100.00;99254.72;5035023;28;20425;-77
2024/02/24 07:25:26;;;;;;;6.57;2.42;;;;;;;0.88;100.00;99260.59;5038366;28;20451;-78
2024/02/24 07:28:00;;;;;;;9.98;3.53;;;;;;;0.90;100.00;99260.34;5039406;28;20429;-78
2024/02/24 07:30:28;;;;;;;6.90;2.92;;;;;;;0.95;100.00;99257.75;5053819;28;20423;-78
2024/02/24 07:32:56;;;;;;;7.17;2.37;;;;;;;1.00;100.00;99255.94;5054095;28;20421;-77
2024/02/24 07:35:30;;;;;;;7.82;2.30;;;;;;;1.07;100.00;99266.44;5056775;28;20416;-77
2024/02/24 07:37:58;;;;;;;8.27;2.30;;;;;;;1.10;100.00;99275.84;5055570;28;20415;-78
2024/02/24 07:40:33;;;;;;;6.82;2.20;;;;;;;1.19;100.00;99271.66;5053875;28;20422;-77
2024/02/24 07:43:03;;;;;;;7.95;2.22;;;;;;;1.27;100.00;99276.59;5054384;28;20425;-77
2024/02/24 07:45:36;;;;;;;6.95;2.30;;;;;;;1.35;100.00;99275.28;5053835;28;20430;-77
2024/02/24 07:48:07;;;;;;;6.20;2.28;;;;;;;1.37;100.00;99275.88;5054704;28;20422;-80
2024/02/24 07:50:42;;;;;;;7.80;2.13;;;;;;;1.45;100.00;99266.53;5053914;28;20514;-78
2024/02/24 07:53:15;;;;;;;6.80;2.55;;;;;;;1.64;100.00;99264.31;5052906;28;20433;-79
2024/02/24 07:55:48;;;;;;;7.70;2.10;;;;;;;1.55;100.00;99253.25;5052543;28;20432;-78
2024/02/24 07:58:23;;;;;;;7.93;2.20;;;;;;;1.58;100.00;99271.50;5035831;28;20425;-79
2024/02/24 08:00:56;;;;;;;6.78;2.13;;;;;;;1.58;100.00;99265.34;5049282;28;20488;-78
2024/02/24 08:03:30;;;;;;;5.90;2.13;;;;;;;1.58;100.00;99260.78;5052177;28;20425;-78
2024/02/24 08:05:59;;;;;;;6.15;2.10;;;;;;;1.69;100.00;99261.66;5034225;28;20508;-78
2024/02/24 08:08:27;;;;;;;5.82;2.10;;;;;;;1.82;100.00;99268.47;5048824;28;20436;-78
2024/02/24 08:11:01;;;;;;;6.43;2.10;;;;;;;1.85;100.00;99278.66;5034407;28;20433;-78
2024/02/24 08:13:41;;;;;;;6.75;2.10;;;;;;;1.86;100.00;99278.44;5054620;28;20423;-78
2024/02/24 08:16:10;;;;;;;7.57;2.00;;;;;;;1.95;100.00;99281.44;5054726;28;20440;-77
2024/02/24 08:18:40;;;;;;;9.90;2.13;;;;;;;1.86;100.00;99281.13;5030647;28;20785;-78
2024/02/24 08:21:08;;;;;;;7.82;2.58;;;;;;;1.96;100.00;99279.56;5036070;28;21051;-78
2024/02/24 08:23:37;;;;;;;7.82;2.22;;;;;;;1.92;100.00;99281.16;5007354;28;20610;-78
2024/02/24 08:26:10;;;;;;;5.85;2.20;;;;;;;2.09;100.00;99278.34;5037193;28;20451;-78
2024/02/24 08:28:45;;;;;;;5.85;2.20;;;;;;;2.10;100.00;99287.97;5051071;28;21011;-80
2024/02/24 08:31:18;;;;;;;8.90;3.38;;;;;;;2.12;100.00;99293.91;5033983;28;20441;-78
2024/02/24 08:33:51;;;;;;;5.20;2.30;;;;;;;2.13;100.00;99288.28;5035805;28;20446;-78
2024/02/24 08:36:19;;;;;;;7.10;2.05;;;;;;;2.23;100.00;99292.09;5033109;28;20431;-80
2024/02/24 08:38:53;;;;;;;8.03;2.30;;;;;;;2.32;100.00;99299.41;5034321;28;20426;-78
2024/02/24 08:41:26;;;;;;;5.43;2.30;;;;;;;2.36;100.00;99305.88;5050487;28;21237;-77
2024/02/24 08:43:56;;;;;;;9.43;2.78;;;;;;;2.48;100.00;99308.34;5030802;28;20437;-77
2024/02/24 08:46:29;;;;;;;9.97;2.40;;;;;;;2.78;100.00;99306.09;5047439;28;20504;-77
2024/02/24 08:49:02;;;;;;;7.90;2.47;;;;;;;2.94;100.00;99309.66;5045878;28;20435;-77
2024/02/24 08:51:36;;;;;;;8.07;2.50;;;;;;;3.00;100.00;99316.69;5050274;28;20430;-77
2024/02/24 08:54:10;;;;;;;6.57;2.40;;;;;;;3.13;100.00;99310.78;5051253;28;20886;-85
2024/02/24 08:56:45;;;;;;;7.65;2.38;;;;;;;3.17;100.00;99303.00;5047376;28;20427;-77
2024/02/24 08:59:20;;;;;;;7.13;2.20;;;;;;;3.53;100.00;99308.47;4999153;28;20424;-77
2024/02/24 09:01:54;;;;;;;5.95;2.20;;;;;;;3.61;100.00;99307.16;5053036;28;21143;-77
2024/02/24 09:04:27;;;;;;;7.43;2.50;;;;;;;3.56;100.00;99299.84;5048580;28;20424;-76
2024/02/24 09:07:00;;;;;;;5.75;2.05;;;;;;;3.50;100.00;99296.34;5036186;28;20427;-82
2024/02/24 09:09:34;;;;;;;7.00;2.22;;;;;;;3.41;100.00;99303.31;5033279;28;20433;-77
2024/02/24 09:12:08;;;;;;;5.60;2.30;;;;;;;3.39;100.00;99305.47;5050382;28;20436;-77
2024/02/24 09:14:42;;;;;;;6.55;2.22;;;;;;;3.43;100.00;99303.88;5029326;28;20440;-77
2024/02/24 09:17:10;;;;;;;9.45;2.78;;;;;;;3.45;100.00;99309.78;5049470;28;20432;-77
2024/02/24 09:19:38;;;;;;;6.90;2.50;;;;;;;3.50;100.00;99303.63;5047788;28;20453;-77
2024/02/24 09:22:11;;;;;;;11.85;3.17;;;;;;;3.62;100.00;99311.44;5052610;28;20425;-77
2024/02/24 09:24:45;;;;;;;7.50;2.70;;;;;;;3.71;100.00;99313.31;5052524;28;20424;-76
2024/02/24 09:27:18;;;;;;;7.77;3.00;;;;;;;3.77;100.00;99318.72;5053109;28;20882;-77
2024/02/24 09:29:52;;;;;;;8.80;2.53;;;;;;;3.77;100.00;99319.53;5051692;28;20451;-77
2024/02/24 09:32:26;;;;;;;11.98;3.55;;;;;;;3.87;100.00;99324.13;5049510;28;20918;-77
2024/02/24 09:34:54;;;;;;;13.80;3.35;;;;;;;3.99;100.00;99315.75;5055375;28;20417;-76
2024/02/24 09:37:27;;;;;;;12.48;3.17;;;;;;;4.02;100.00;99321.41;5056576;28;20435;-77
2024/02/24 09:40:02;;;;;;;6.63;2.42;;;;;;;4.05;100.00;99326.25;5037863;28;20904;-77
2024/02/24 09:42:35;;;;;;;6.88;2.78;;;;;;;4.43;100.00;99329.47;5055663;28;20424;-77
2024/02/24 09:45:13;;;;;;;5.43;2.28;;;;;;;4.76;100.00;99329.94;5056905;28;20904;-77
2024/02/24 09:47:46;;;;;;;9.43;2.45;;;;;;;4.94;100.00;99327.69;5039104;28;21140;-77
2024/02/24 09:50:19;;;;;;;8.45;2.13;;;;;;;5.16;100.00;99324.63;5057076;28;20440;-77
2024/02/24 09:52:53;;;;;;;8.73;2.53;;;;;;;5.22;100.00;99336.19;5059497;28;20428;-77
2024/02/24 09:55:26;;;;;;;8.60;2.30;;;;;;;5.32;100.00;99338.84;5037881;28;20425;-77
2024/02/24 09:58:01;;;;;;;7.87;2.53;;;;;;;5.44;100.00;99333.94;5055867;28;20427;-77
2024/02/24 10:00:35;;;;;;;4.30;1.77;;;;;;;5.27;100.00;99341.56;5053373;28;20423;-78
2024/02/24 10:03:10;;;;;;;6.18;2.03;;;;;;;5.17;100.00;99338.94;5041077;28;20421;-77
2024/02/24 10:05:44;;;;;;;7.38;2.05;;;;;;;5.05;100.00;99333.84;5052408;28;20927;-77
2024/02/24 10:08:18;;;;;;;8.35;2.10;;;;;;;4.93;100.00;99334.97;5053816;28;20425;-77
2024/02/24 10:10:51;;;;;;;7.68;2.30;;;;;;;4.97;100.00;99332.53;5055007;28;20425;-77
2024/02/24 10:13:25;;;;;;;6.65;1.98;;;;;;;4.99;100.00;99335.75;5056425;28;20433;-78
2024/02/24 10:15:54;;;;;;;6.05;2.10;;;;;;;5.17;100.00;99336.25;5054609;28;20421;-77
2024/02/24 10:18:28;;;;;;;5.63;1.60;;;;;;;5.31;100.00;99342.63;5052911;28;20428;-77
2024/02/24 10:21:01;;;;;;;4.40;1.48;;;;;;;5.56;100.00;99328.19;5057574;28;20428;-77
2024/02/24 10:23:34;;;;;;;7.15;1.80;;;;;;;5.58;100.00;99336.81;5039568;28;20431;-77
2024/02/24 10:26:07;;;;;;;9.30;1.80;;;;;;;5.70;100.00;99349.16;5045403;28;20437;-77
2024/02/24 10:28:41;;;;;;;6.30;1.83;;;;;;;5.66;100.00;99351.59;5058419;28;20423;-79
2024/02/24 10:31:16;;;;;;;6.22;2.10;;;;;;;5.72;100.00;99347.00;5053625;28;20426;-79
2024/02/24 10:33:51;;;;;;;8.80;2.00;;;;;;;5.78;100.00;99346.66;5040525;28;20980;-80
2024/02/24 10:36:20;;;;;;;4.13;1.52;;;;;;;5.84;100.00;99352.03;5033979;28;20426;-77
2024/02/24 10:38:54;;;;;;;7.35;1.95;;;;;;;5.83;100.00;99347.72;5034760;28;21036;-77
2024/02/24 10:41:28;;;;;;;4.07;1.40;;;;;;;5.77;100.00;99352.34;5050116;28;21071;-77
2024/02/24 10:44:02;;;;;;;6.27;1.70;;;;;;;5.70;100.00;99349.94;5052791;28;20430;-80
2024/02/24 10:46:32;;;;;;;5.82;1.90;;;;;;;5.83;100.00;99361.22;5057225;28;20427;-78
2024/02/24 10:49:00;;;;;;;5.20;1.77;;;;;;;5.81;100.00;99364.19;5038256;28;20443;-77
2024/02/24 10:51:35;;;;;;;7.22;1.83;;;;;;;5.80;100.00;99359.91;5036934;28;20434;-77
2024/02/24 10:54:12;;;;;;;4.60;1.50;;;;;;;5.82;100.00;99360.41;5029505;28;20422;-78
2024/02/24 10:56:41;;;;;;;6.93;1.75;;;;;;;5.89;100.00;99360.91;5037040;28;20429;-80
2024/02/24 10:59:14;;;;;;;5.03;1.60;;;;;;;5.77;100.00;99361.25;5049502;28;20434;-79
2024/02/24 11:01:46;;;;;;;6.00;1.60;;;;;;;6.05;100.00;99363.50;5043101;28;20419;-78
2024/02/24 11:04:21;;;;;;;5.05;1.88;;;;;;;5.98;100.00;99363.03;5050033;28;20510;-78
2024/02/24 11:06:56;;;;;;;7.27;1.90;;;;;;;6.13;100.00;99358.34;5034252;28;20433;-77
2024/02/24 11:09:35;;;;;;;5.60;1.67;;;;;;;6.36;100.00;99371.38;5054207;28;20944;-78
2024/02/24 11:12:12;;;;;;;4.85;2.10;;;;;;;6.57;100.00;99363.88;5049582;28;20919;-79
2024/02/24 11:14:48;;;;;;;5.60;2.00;;;;;;;6.92;100.00;99365.41;5051163;28;20423;-80
2024/02/24 11:17:48;;;;;;;5.65;1.50;;;;;;;6.93;100.00;99366.22;5038367;28;21282;-79
2024/02/24 11:20:55;;;;;;;4.97;1.42;;;;;;;7.04;100.00;99358.78;5032492;28;20433;-79
2024/02/24 11:23:36;;;;;;;2.33;1.30;;;;;;;7.12;100.00;99363.56;5027203;28;20425;-79
2024/02/24 11:26:28;;;;;;;5.22;1.98;;;;;;;7.15;100.00;99363.78;5048599;28;20425;-79
2024/02/24 11:29:05;;;;;;;5.75;2.05;;;;;;;7.30;100.00;99360.06;5030982;28;20892;-78
2024/02/24 11:31:43;;;;;;;4.65;1.55;;;;;;;7.14;100.00;99359.47;5031406;28;20436;-79
2024/02/24 11:34:22;;;;;;;5.85;2.03;;;;;;;7.19;100.00;99360.50;5037168;28;20784;-78
2024/02/24 11:36:50;;;;;;;5.20;1.80;;;;;;;7.29;100.00;99363.06;5039138;28;20423;-79
2024/02/24 11:39:25;;;;;;;4.78;1.50;;;;;;;7.30;100.00;99360.06;5026321;28;21130;-78
2024/02/24 11:41:58;;;;;;;3.70;1.45;;;;;;;7.32;100.00;99368.72;5017736;28;20428;-78
2024/02/24 11:44:32;;;;;;;3.85;1.33;;;;;;;7.48;100.00;99371.22;5042887;28;20431;-79
2024/02/24 11:47:05;;;;;;;3.75;1.75;;;;;;;7.40;100.00;99361.88;5017471;28;20835;-78
2024/02/24 11:49:35;;;;;;;4.35;1.88;;;;;;;7.65;100.00;99368.81;5017815;28;20891;-78
2024/02/24 11:52:03;;;;;;;5.10;1.63;;;;;;;7.63;100.00;99368.28;5030698;28;21268;-77
2024/02/24 11:54:33;;;;;;;3.63;1.50;;;;;;;7.53;100.00;99373.88;5035747;28;20431;-78
2024/02/24 11:57:02;;;;;;;3.38;1.55;;;;;;;7.57;100.00;99361.34;5015140;28;20428;-78
2024/02/24 11:59:37;;;;;;;4.55;1.40;;;;;;;7.61;100.00;99365.09;5034484;28;20859;-78